| Record Date MM/DD/YYYY | Record Julian Date NNN day of the year | Air Temperature Max (Degrees Fahrenheit F) | Time Max Air Temperature HH:MM:SS This is the time of max air temperature standard time. | Air Temperature Min (Degrees Fahrenheit F) | Time Min Air Temperature HH:MM:SS This is the time of min air temperature standard time. | Air Temperature Observed (Degrees Fahrenheit F) This is an instantaneous reading for air temperature at 7:00:00 standard time. | Relative Humidity Max (Percent) | Time Max Relative Humidity HH:MM:SS This is the time of max relative humidity standard time. | Relative Humidity Min (Percent) | Time Min Relative Humidity HH:MM:SS This is the time of min relative humidity standard time. | Relative Humidity Observed (Percent) This is an instantaneous reading at 7:00:00 standard time. | Precipitation (Inches n.nn) total rain fall that occurred for the day. | Pan Evaporation (Inches n.nn) total evaporation that occured for the day. | Wind Run (Miles) Wind travel for the day. | Wind Speed (Miles Per Hour) Resultant / Average speed for the day. | Wind Direction (Degrees) Resultant Direction for the day | Solar Radiation (Langley's) that occurred for the day. | Soil Temperature Max at 2 inch depth (Degrees Fahrenheit F) that occurred during the day. | Time Max Soil temperature at 2 inches HH:MM:SS This is the time of max 2 inch soil temperature standard time. | Soil Temperature Min at 2 inch depth (Degrees Fahrenheit F) that occurred during the day. | Time Min Soil temperature at 2 inches HH:MM:SS This is the time of min 2 inch soil temperature standard time. | Soil Temperature Observed at 2 inch depth (Degrees Fahrenheit F) This is an instantaneous reading 2 inch soil temperature at 7:00:00 standard time. | Soil Temperature Max at 4 inch depth (Degrees Fahrenheit F) that occurred during the day. | Time Max Soil temperature at 4 inches HH:MM:SS This is the time of max 4 inch soil temperature standard time. | Soil Temperature Min at 4 inch depth (Degrees Fahrenheit F) that occurred during the day. | Time Min Soil temperature at 4 inches HH:MM:SS This is the time of min 4 inch soil temperature standard time. | Soil Temperature Observed at 4 inch depth (Degrees Fahrenheit F) This is an instantaneous reading 4 inch soil temperature at 7:00:00 standard time. | DD50 Degree Days 50 Fahrenheit. | Adjusted DD50 Degree Days 50 Fahrenheit adjusted for latitude. | DD60 Degree Days 60 Fahrenheit. |
|---|---|---|---|---|---|---|---|---|---|---|---|---|---|---|---|---|---|---|---|---|---|---|---|---|---|---|---|---|---|---|
| 08/03/2026 | 215 | 95 | 13:43:04 | 67 | 2:48:01 | 72 | 98 | 3:23:00 | 51 | 13:56:03 | 97 | 0 | 7 | 0.3 | 0 | 31 | 27.12 | 21 | ||||||||||||
| 08/04/2026 | 216 | 99 | 14:26:04 | 66 | 5:06:02 | 72 | 98 | 5:11:02 | 38 | 14:23:04 | 98 | 0 | 13 | 0.5 | 0 | 32.5 | 27.09 | 22.5 | ||||||||||||
| 08/05/2026 | 217 | 99 | 12:24:03 | 67 | 5:14:03 | 71 | 98 | 5:24:04 | 37 | 12:28:00 | 98 | 0 | 4 | 0.1 | 0 | 33 | 27.05 | 23 | ||||||||||||
| 08/06/2026 | 218 | 101 | 13:17:03 | 69 | 5:15:03 | 74 | 98 | 5:26:03 | 37 | 13:15:04 | 98 | 0 | 1 | 0.1 | 0 | 35 | 27.02 | 25 | ||||||||||||
| 08/07/2026 | 219 | 100 | 13:41:03 | 71 | 5:13:00 | 75 | 98 | 5:33:01 | 50 | 14:20:02 | 97 | 0.09 | 16 | 0.7 | 0 | 35.5 | 26.99 | 25.5 | ||||||||||||
| 08/08/2026 | 220 | 96 | 11:36:02 | 71 | 4:53:01 | 74 | 98 | 5:40:01 | 56 | 11:36:05 | 98 | 0.13 | 11 | 0.5 | 0 | 33.5 | 26.95 | 23.5 | ||||||||||||
| 08/09/2026 | 221 | 99 | 11:28:05 | 70 | 4:53:00 | 75 | 98 | 5:53:05 | 52 | 11:29:01 | 98 | 1.53 | 11 | 0.5 | 0 | 34.5 | 26.92 | 24.5 | ||||||||||||
| 08/10/2026 | 222 | 100 | 12:29:01 | 70 | 4:47:05 | 74 | 99 | 5:21:02 | 45 | 12:25:00 | 98 | 0 | 7 | 0.3 | 0 | 35 | 26.89 | 25 | ||||||||||||
| 08/11/2026 | 223 | 96 | 15:41:01 | 73 | 5:14:05 | 77 | 98 | 5:37:04 | 53 | 15:51:03 | 98 | 0 | 43 | 1.8 | 0 | 34.5 | 26.85 | 24.5 | ||||||||||||
| 08/12/2026 | 224 | 99 | 14:33:00 | 72 | 5:11:04 | 80 | 98 | 5:54:01 | 47 | 14:35:03 | 90 | 0 | 52 | 2.2 | 0 | 35.5 | 26.82 | 25.5 | ||||||||||||
| 08/13/2026 | 225 | 101 | 16:24:01 | 73 | 5:17:05 | 81 | 98 | 5:41:02 | 43 | 14:45:01 | 90 | 0 | 45 | 1.9 | 0 | 37 | 26.79 | 27 | ||||||||||||
| 08/14/2026 | 226 | 101 | 15:36:02 | 73 | 5:28:05 | 80 | 98 | 6:06:00 | 33 | 15:47:02 | 92 | 0 | 42 | 1.7 | 0 | 37 | 26.75 | 27 | ||||||||||||
| 08/15/2026 | 227 | 105 | 13:57:00 | 68 | 4:33:03 | 73 | 99 | 5:27:05 | 31 | 14:20:00 | 98 | 0 | 25 | 1.0 | 0 | 36.5 | 26.72 | 26.5 | ||||||||||||
| 08/16/2026 | 228 | 106 | 14:13:03 | 72 | 5:00:01 | 77 | 98 | 6:09:05 | 34 | 14:13:04 | 97 | 0 | 15 | 0.6 | 0 | 39 | 26.68 | 29 | ||||||||||||
| 08/17/2026 | 229 | 106 | 14:07:01 | 73 | 23:54:05 | 83 | 98 | 1:30:01 | 33 | 13:01:04 | 83 | 0 | 63 | 2.6 | 0 | 39.5 | 26.65 | 29.5 | ||||||||||||
| 08/18/2026 | 230 | 102 | 13:36:03 | 72 | 4:14:05 | 76 | 98 | 5:17:04 | 47 | 13:33:05 | 95 | 0 | 2 | 0.1 | 0 | 37 | 26.61 | 27 | ||||||||||||
| 08/19/2026 | 231 | 104 | 12:08:05 | 72 | 5:06:04 | 76 | 98 | 6:01:00 | 41 | 11:36:01 | 98 | 0.24 | 26 | 1.1 | 0 | 38 | 26.58 | 28 | ||||||||||||
| 08/20/2026 | 232 | 105 | 13:42:04 | 72 | 23:07:03 | 78 | 98 | 4:15:03 | 40 | 13:53:02 | 97 | 0.05 | 22 | 0.9 | 0 | 38.5 | 26.54 | 28.5 | ||||||||||||
| 08/21/2026 | 233 | 98 | 13:51:02 | 72 | 3:39:00 | 76 | 98 | 23:52:04 | 51 | 13:18:00 | 97 | 0.47 | 0 | 0.0 | 0 | 35 | 26.51 | 25 | ||||||||||||
| 08/22/2026 | 234 | 100 | 15:22:04 | 68 | 5:20:05 | 72 | 98 | 5:49:02 | 45 | 13:16:05 | 98 | 0.04 | 2 | 0.1 | 0 | 34 | 26.47 | 24 | ||||||||||||
| 08/23/2026 | 235 | 97 | 15:03:02 | 70 | 5:31:05 | 73 | 98 | 6:02:01 | 47 | 15:03:05 | 97 | 0.04 | 9 | 0.4 | 0 | 33.5 | 26.44 | 23.5 | ||||||||||||
| 08/24/2026 | 236 | 95 | 15:34:05 | 72 | 1:15:03 | 73 | 98 | 5:48:02 | 50 | 15:36:01 | 97 | 0 | 21 | 0.9 | 0 | 33.5 | 26.4 | 23.5 | ||||||||||||
| 08/25/2026 | 237 | 98 | 15:21:03 | 71 | 4:22:05 | 75 | 98 | 5:17:04 | 48 | 15:22:02 | 98 | 0 | 23 | 1.0 | 0 | 34.5 | 26.37 | 24.5 | ||||||||||||
| 08/26/2026 | 238 | 99 | 13:06:00 | 73 | 21:02:03 | 78 | 98 | 20:55:04 | 47 | 13:06:00 | 97 | 1.7 | 29 | 1.2 | 0 | 36 | 26.33 | 26 | ||||||||||||
| 08/27/2026 | 239 | 94 | 15:06:01 | 72 | 23:58:02 | 73 | 98 | 6:03:04 | 57 | 15:09:02 | 98 | 0 | 0 | 0.0 | 0 | 33 | 26.3 | 23 | ||||||||||||
| 08/28/2026 | 240 | 95 | 16:07:01 | 67 | 23:50:03 | 75 | 98 | 4:57:01 | 37 | 15:58:00 | 97 | 0 | 5 | 0.2 | 0 | 31 | 26.26 | 21 | ||||||||||||
| 08/29/2026 | 241 | 99 | 14:01:02 | 64 | 5:22:02 | 69 | 98 | 6:27:05 | 38 | 14:37:05 | 98 | 0 | 5 | 0.2 | 0 | 31.5 | 26.22 | 21.5 | ||||||||||||
| 08/30/2026 | 242 | 99 | 15:43:02 | 70 | 5:29:05 | 74 | 98 | 6:16:05 | 46 | 15:47:01 | 98 | 0 | 13 | 0.6 | 0 | 34.5 | 26.19 | 24.5 | ||||||||||||
| 08/31/2026 | 243 | 102 | 16:03:02 | 70 | 5:36:00 | 74 | 98 | 6:04:02 | 41 | 13:48:00 | 98 | 0 | 4 | 0.2 | 0 | 36 | 26.15 | 26 | ||||||||||||
| 09/01/2026 | 244 | 104 | 16:03:02 | 71 | 5:38:04 | 75 | 98 | 5:52:03 | 38 | 15:53:02 | 98 | 0 | 3 | 0.1 | 0 | 37.5 | 26.12 | 27.5 | ||||||||||||
| Average | 99.8 | 70.37 | 75.17 | 98.07 | 43.77 | 96.37 | 0.14 | 17.3 | 0 | 0 | 0 | 0 | 0 | 0 | 0 | 35.08 | 26.63 | 25.08 | ||||||||||||
| Total | 4.29 | 1052.5 | 798.78 | 752.5 |